sensor_id;sensor_type;location;lat;lon;timestamp;P1;durP1;ratioP1;P2;durP2;ratioP2
10699;SDS011;5401;41.986;21.452;2023-03-01T00:01:41;37.53;;;22.17;;
10699;SDS011;5401;41.986;21.452;2023-03-01T00:04:08;36.80;;;22.10;;
10699;SDS011;5401;41.986;21.452;2023-03-01T00:06:39;35.77;;;20.87;;
10699;SDS011;5401;41.986;21.452;2023-03-01T00:09:11;35.03;;;21.33;;
10699;SDS011;5401;41.986;21.452;2023-03-01T00:11:39;35.70;;;21.37;;
10699;SDS011;5401;41.986;21.452;2023-03-01T00:14:09;32.47;;;21.53;;
10699;SDS011;5401;41.986;21.452;2023-03-01T00:16:37;32.53;;;21.60;;
10699;SDS011;5401;41.986;21.452;2023-03-01T00:19:09;38.57;;;20.93;;
10699;SDS011;5401;41.986;21.452;2023-03-01T00:21:40;32.70;;;21.17;;
10699;SDS011;5401;41.986;21.452;2023-03-01T00:24:08;35.10;;;21.03;;
10699;SDS011;5401;41.986;21.452;2023-03-01T00:26:36;32.27;;;19.63;;
10699;SDS011;5401;41.986;21.452;2023-03-01T00:29:04;35.50;;;21.87;;
10699;SDS011;5401;41.986;21.452;2023-03-01T00:31:34;36.23;;;20.77;;
10699;SDS011;5401;41.986;21.452;2023-03-01T00:34:02;33.20;;;20.63;;
10699;SDS011;5401;41.986;21.452;2023-03-01T00:36:33;36.80;;;22.17;;
10699;SDS011;5401;41.986;21.452;2023-03-01T00:39:02;31.30;;;21.07;;
10699;SDS011;5401;41.986;21.452;2023-03-01T00:41:30;31.77;;;19.80;;
10699;SDS011;5401;41.986;21.452;2023-03-01T00:44:00;35.47;;;21.03;;
10699;SDS011;5401;41.986;21.452;2023-03-01T00:46:27;32.13;;;22.63;;
10699;SDS011;5401;41.986;21.452;2023-03-01T00:48:57;33.83;;;21.53;;
10699;SDS011;5401;41.986;21.452;2023-03-01T00:51:28;38.13;;;22.40;;
10699;SDS011;5401;41.986;21.452;2023-03-01T00:53:57;34.53;;;22.17;;
10699;SDS011;5401;41.986;21.452;2023-03-01T00:56:26;33.53;;;20.67;;
10699;SDS011;5401;41.986;21.452;2023-03-01T00:58:54;35.50;;;22.07;;
10699;SDS011;5401;41.986;21.452;2023-03-01T01:01:23;33.53;;;20.93;;
10699;SDS011;5401;41.986;21.452;2023-03-01T01:03:53;32.73;;;20.80;;
10699;SDS011;5401;41.986;21.452;2023-03-01T01:06:24;35.20;;;22.10;;
10699;SDS011;5401;41.986;21.452;2023-03-01T01:08:54;36.90;;;20.80;;
10699;SDS011;5401;41.986;21.452;2023-03-01T01:11:23;33.60;;;20.10;;
10699;SDS011;5401;41.986;21.452;2023-03-01T01:13:52;36.07;;;20.43;;
10699;SDS011;5401;41.986;21.452;2023-03-01T01:16:20;34.23;;;20.03;;
10699;SDS011;5401;41.986;21.452;2023-03-01T01:18:49;33.27;;;20.47;;
10699;SDS011;5401;41.986;21.452;2023-03-01T01:21:17;33.70;;;20.13;;
10699;SDS011;5401;41.986;21.452;2023-03-01T01:23:48;29.23;;;20.10;;
10699;SDS011;5401;41.986;21.452;2023-03-01T01:26:17;32.63;;;20.17;;
10699;SDS011;5401;41.986;21.452;2023-03-01T01:28:46;30.93;;;20.03;;
10699;SDS011;5401;41.986;21.452;2023-03-01T01:31:14;30.97;;;19.80;;
10699;SDS011;5401;41.986;21.452;2023-03-01T01:33:42;35.93;;;20.87;;
10699;SDS011;5401;41.986;21.452;2023-03-01T01:36:10;30.73;;;19.93;;
10699;SDS011;5401;41.986;21.452;2023-03-01T01:38:38;30.47;;;19.40;;
10699;SDS011;5401;41.986;21.452;2023-03-01T01:41:09;29.47;;;18.23;;
10699;SDS011;5401;41.986;21.452;2023-03-01T01:43:38;28.83;;;19.70;;
10699;SDS011;5401;41.986;21.452;2023-03-01T01:46:10;31.80;;;20.17;;
10699;SDS011;5401;41.986;21.452;2023-03-01T01:48:55;29.50;;;19.10;;
10699;SDS011;5401;41.986;21.452;2023-03-01T01:51:28;34.60;;;19.80;;
10699;SDS011;5401;41.986;21.452;2023-03-01T01:54:05;29.20;;;19.80;;
10699;SDS011;5401;41.986;21.452;2023-03-01T01:56:38;30.33;;;19.60;;
10699;SDS011;5401;41.986;21.452;2023-03-01T01:59:09;31.23;;;20.13;;
10699;SDS011;5401;41.986;21.452;2023-03-01T02:01:38;29.27;;;19.17;;
10699;SDS011;5401;41.986;21.452;2023-03-01T02:04:05;29.77;;;20.07;;
10699;SDS011;5401;41.986;21.452;2023-03-01T02:06:34;28.63;;;19.00;;
10699;SDS011;5401;41.986;21.452;2023-03-01T02:09:05;35.53;;;20.53;;
10699;SDS011;5401;41.986;21.452;2023-03-01T02:11:38;28.30;;;19.43;;
10699;SDS011;5401;41.986;21.452;2023-03-01T02:14:07;33.37;;;20.47;;
10699;SDS011;5401;41.986;21.452;2023-03-01T02:16:34;30.40;;;18.87;;
10699;SDS011;5401;41.986;21.452;2023-03-01T02:19:02;31.90;;;19.80;;
10699;SDS011;5401;41.986;21.452;2023-03-01T02:21:35;29.10;;;19.07;;
10699;SDS011;5401;41.986;21.452;2023-03-01T02:24:10;28.77;;;19.80;;
10699;SDS011;5401;41.986;21.452;2023-03-01T02:26:51;29.80;;;19.47;;
10699;SDS011;5401;41.986;21.452;2023-03-01T02:29:23;32.30;;;19.17;;
10699;SDS011;5401;41.986;21.452;2023-03-01T02:31:52;31.13;;;18.27;;
10699;SDS011;5401;41.986;21.452;2023-03-01T02:34:23;30.93;;;19.10;;
10699;SDS011;5401;41.986;21.452;2023-03-01T02:36:52;31.00;;;19.93;;
10699;SDS011;5401;41.986;21.452;2023-03-01T02:39:24;25.23;;;18.07;;
10699;SDS011;5401;41.986;21.452;2023-03-01T02:41:57;26.50;;;17.87;;
10699;SDS011;5401;41.986;21.452;2023-03-01T02:44:27;29.77;;;19.43;;
10699;SDS011;5401;41.986;21.452;2023-03-01T02:46:55;27.03;;;17.97;;
10699;SDS011;5401;41.986;21.452;2023-03-01T02:49:24;30.20;;;18.80;;
10699;SDS011;5401;41.986;21.452;2023-03-01T02:54:48;32.97;;;19.57;;
10699;SDS011;5401;41.986;21.452;2023-03-01T02:57:21;29.13;;;18.90;;
10699;SDS011;5401;41.986;21.452;2023-03-01T02:59:54;33.13;;;20.03;;
10699;SDS011;5401;41.986;21.452;2023-03-01T03:02:24;28.63;;;18.40;;
10699;SDS011;5401;41.986;21.452;2023-03-01T03:05:04;31.17;;;18.83;;
10699;SDS011;5401;41.986;21.452;2023-03-01T03:07:34;31.87;;;19.73;;
10699;SDS011;5401;41.986;21.452;2023-03-01T03:10:03;29.60;;;19.23;;
10699;SDS011;5401;41.986;21.452;2023-03-01T03:12:32;27.63;;;18.97;;
10699;SDS011;5401;41.986;21.452;2023-03-01T03:15:01;31.97;;;19.13;;
10699;SDS011;5401;41.986;21.452;2023-03-01T03:17:34;32.63;;;19.13;;
10699;SDS011;5401;41.986;21.452;2023-03-01T03:20:03;32.60;;;21.40;;
10699;SDS011;5401;41.986;21.452;2023-03-01T03:22:31;35.20;;;19.23;;
10699;SDS011;5401;41.986;21.452;2023-03-01T03:24:59;29.57;;;17.73;;
10699;SDS011;5401;41.986;21.452;2023-03-01T03:27:27;29.73;;;18.47;;
10699;SDS011;5401;41.986;21.452;2023-03-01T03:29:55;30.40;;;17.27;;
10699;SDS011;5401;41.986;21.452;2023-03-01T03:32:23;28.00;;;18.23;;
10699;SDS011;5401;41.986;21.452;2023-03-01T03:34:51;25.40;;;16.70;;
10699;SDS011;5401;41.986;21.452;2023-03-01T03:37:18;30.13;;;17.23;;
10699;SDS011;5401;41.986;21.452;2023-03-01T03:40:00;24.30;;;17.27;;
10699;SDS011;5401;41.986;21.452;2023-03-01T03:42:28;27.03;;;16.30;;
10699;SDS011;5401;41.986;21.452;2023-03-01T03:44:55;24.43;;;16.33;;
10699;SDS011;5401;41.986;21.452;2023-03-01T03:47:24;24.77;;;16.23;;
10699;SDS011;5401;41.986;21.452;2023-03-01T03:49:52;24.30;;;16.23;;
10699;SDS011;5401;41.986;21.452;2023-03-01T03:52:20;24.93;;;16.17;;
10699;SDS011;5401;41.986;21.452;2023-03-01T03:54:47;23.70;;;15.73;;
10699;SDS011;5401;41.986;21.452;2023-03-01T03:57:14;25.77;;;15.23;;
10699;SDS011;5401;41.986;21.452;2023-03-01T03:59:42;24.77;;;15.53;;
10699;SDS011;5401;41.986;21.452;2023-03-01T04:02:10;21.20;;;14.97;;
10699;SDS011;5401;41.986;21.452;2023-03-01T04:04:38;22.83;;;15.17;;
10699;SDS011;5401;41.986;21.452;2023-03-01T04:07:06;19.93;;;14.23;;
10699;SDS011;5401;41.986;21.452;2023-03-01T04:09:34;24.57;;;15.33;;
10699;SDS011;5401;41.986;21.452;2023-03-01T04:12:01;27.00;;;16.30;;
10699;SDS011;5401;41.986;21.452;2023-03-01T04:14:29;21.23;;;14.60;;
10699;SDS011;5401;41.986;21.452;2023-03-01T04:16:56;26.83;;;15.00;;
10699;SDS011;5401;41.986;21.452;2023-03-01T04:19:24;22.70;;;14.90;;
10699;SDS011;5401;41.986;21.452;2023-03-01T04:21:54;22.67;;;14.73;;
10699;SDS011;5401;41.986;21.452;2023-03-01T04:24:21;20.07;;;14.23;;
10699;SDS011;5401;41.986;21.452;2023-03-01T04:26:49;23.03;;;15.00;;
10699;SDS011;5401;41.986;21.452;2023-03-01T04:29:16;24.13;;;14.97;;
10699;SDS011;5401;41.986;21.452;2023-03-01T04:31:43;23.63;;;14.33;;
10699;SDS011;5401;41.986;21.452;2023-03-01T04:34:11;22.20;;;14.23;;
10699;SDS011;5401;41.986;21.452;2023-03-01T04:36:39;21.80;;;14.00;;
10699;SDS011;5401;41.986;21.452;2023-03-01T04:39:08;24.17;;;13.93;;
10699;SDS011;5401;41.986;21.452;2023-03-01T04:41:37;25.50;;;14.27;;
10699;SDS011;5401;41.986;21.452;2023-03-01T04:44:06;21.50;;;14.63;;
10699;SDS011;5401;41.986;21.452;2023-03-01T04:46:34;19.87;;;14.53;;
10699;SDS011;5401;41.986;21.452;2023-03-01T04:49:03;23.17;;;13.97;;
10699;SDS011;5401;41.986;21.452;2023-03-01T04:51:30;22.10;;;14.00;;
10699;SDS011;5401;41.986;21.452;2023-03-01T04:53:59;20.13;;;14.03;;
10699;SDS011;5401;41.986;21.452;2023-03-01T04:56:28;19.90;;;13.80;;
10699;SDS011;5401;41.986;21.452;2023-03-01T04:58:56;22.23;;;13.90;;
10699;SDS011;5401;41.986;21.452;2023-03-01T05:01:23;22.43;;;13.53;;
10699;SDS011;5401;41.986;21.452;2023-03-01T05:03:51;19.40;;;13.90;;
10699;SDS011;5401;41.986;21.452;2023-03-01T05:06:19;22.10;;;14.00;;
10699;SDS011;5401;41.986;21.452;2023-03-01T05:08:47;24.63;;;14.60;;
10699;SDS011;5401;41.986;21.452;2023-03-01T05:11:15;23.17;;;14.43;;
10699;SDS011;5401;41.986;21.452;2023-03-01T05:13:44;23.30;;;14.07;;
10699;SDS011;5401;41.986;21.452;2023-03-01T05:16:11;24.60;;;13.87;;
10699;SDS011;5401;41.986;21.452;2023-03-01T05:18:40;23.40;;;14.37;;
10699;SDS011;5401;41.986;21.452;2023-03-01T05:21:09;21.03;;;14.03;;
10699;SDS011;5401;41.986;21.452;2023-03-01T05:23:38;25.07;;;14.93;;
10699;SDS011;5401;41.986;21.452;2023-03-01T05:26:06;26.97;;;16.30;;
10699;SDS011;5401;41.986;21.452;2023-03-01T05:28:34;26.87;;;16.67;;
10699;SDS011;5401;41.986;21.452;2023-03-01T05:31:05;24.07;;;15.77;;
10699;SDS011;5401;41.986;21.452;2023-03-01T05:33:35;27.13;;;15.83;;
10699;SDS011;5401;41.986;21.452;2023-03-01T05:36:03;33.73;;;16.93;;
10699;SDS011;5401;41.986;21.452;2023-03-01T05:38:31;19.70;;;13.30;;
10699;SDS011;5401;41.986;21.452;2023-03-01T05:40:59;25.57;;;14.83;;
10699;SDS011;5401;41.986;21.452;2023-03-01T05:43:29;21.43;;;14.23;;
10699;SDS011;5401;41.986;21.452;2023-03-01T05:45:57;23.27;;;15.67;;
10699;SDS011;5401;41.986;21.452;2023-03-01T05:48:26;24.37;;;15.07;;
10699;SDS011;5401;41.986;21.452;2023-03-01T05:50:54;21.93;;;15.00;;
10699;SDS011;5401;41.986;21.452;2023-03-01T05:53:21;25.90;;;14.90;;
10699;SDS011;5401;41.986;21.452;2023-03-01T05:55:49;24.07;;;13.63;;
10699;SDS011;5401;41.986;21.452;2023-03-01T05:58:17;18.30;;;13.07;;
10699;SDS011;5401;41.986;21.452;2023-03-01T06:00:47;26.27;;;14.27;;
10699;SDS011;5401;41.986;21.452;2023-03-01T06:03:16;28.57;;;14.50;;
10699;SDS011;5401;41.986;21.452;2023-03-01T06:05:46;19.90;;;14.10;;
10699;SDS011;5401;41.986;21.452;2023-03-01T06:08:13;19.27;;;14.40;;
10699;SDS011;5401;41.986;21.452;2023-03-01T06:10:41;18.93;;;13.50;;
10699;SDS011;5401;41.986;21.452;2023-03-01T06:13:09;22.57;;;14.13;;
10699;SDS011;5401;41.986;21.452;2023-03-01T06:15:36;24.27;;;14.17;;
10699;SDS011;5401;41.986;21.452;2023-03-01T06:18:04;21.27;;;13.47;;
10699;SDS011;5401;41.986;21.452;2023-03-01T06:20:31;18.07;;;13.07;;
10699;SDS011;5401;41.986;21.452;2023-03-01T06:23:00;24.60;;;14.13;;
10699;SDS011;5401;41.986;21.452;2023-03-01T06:25:28;19.17;;;13.27;;
10699;SDS011;5401;41.986;21.452;2023-03-01T06:27:55;18.13;;;12.53;;
10699;SDS011;5401;41.986;21.452;2023-03-01T06:30:24;19.37;;;13.73;;
10699;SDS011;5401;41.986;21.452;2023-03-01T06:32:52;18.63;;;12.90;;
10699;SDS011;5401;41.986;21.452;2023-03-01T06:35:28;21.77;;;14.43;;
10699;SDS011;5401;41.986;21.452;2023-03-01T06:37:57;22.83;;;13.40;;
10699;SDS011;5401;41.986;21.452;2023-03-01T06:40:27;20.47;;;12.70;;
10699;SDS011;5401;41.986;21.452;2023-03-01T06:42:54;21.57;;;15.87;;
10699;SDS011;5401;41.986;21.452;2023-03-01T06:45:22;22.37;;;14.23;;
10699;SDS011;5401;41.986;21.452;2023-03-01T06:47:50;22.80;;;15.83;;
10699;SDS011;5401;41.986;21.452;2023-03-01T06:50:18;23.33;;;15.23;;
10699;SDS011;5401;41.986;21.452;2023-03-01T06:52:46;27.37;;;13.70;;
10699;SDS011;5401;41.986;21.452;2023-03-01T06:55:13;25.33;;;14.27;;
10699;SDS011;5401;41.986;21.452;2023-03-01T06:57:42;21.10;;;14.20;;
10699;SDS011;5401;41.986;21.452;2023-03-01T07:00:10;20.37;;;14.50;;
10699;SDS011;5401;41.986;21.452;2023-03-01T07:02:39;21.03;;;14.23;;
10699;SDS011;5401;41.986;21.452;2023-03-01T07:05:06;23.53;;;14.30;;
10699;SDS011;5401;41.986;21.452;2023-03-01T07:07:34;21.83;;;15.90;;
10699;SDS011;5401;41.986;21.452;2023-03-01T07:10:02;23.47;;;16.07;;
10699;SDS011;5401;41.986;21.452;2023-03-01T07:12:30;23.93;;;13.93;;
10699;SDS011;5401;41.986;21.452;2023-03-01T07:14:59;24.93;;;15.33;;
10699;SDS011;5401;41.986;21.452;2023-03-01T07:17:27;21.43;;;14.13;;
10699;SDS011;5401;41.986;21.452;2023-03-01T07:19:55;24.83;;;14.30;;
10699;SDS011;5401;41.986;21.452;2023-03-01T07:22:23;20.67;;;14.20;;
10699;SDS011;5401;41.986;21.452;2023-03-01T07:24:51;25.93;;;16.47;;
10699;SDS011;5401;41.986;21.452;2023-03-01T07:27:18;22.20;;;14.87;;
10699;SDS011;5401;41.986;21.452;2023-03-01T07:29:46;22.33;;;14.43;;
10699;SDS011;5401;41.986;21.452;2023-03-01T07:32:15;25.47;;;14.90;;
10699;SDS011;5401;41.986;21.452;2023-03-01T07:34:42;18.90;;;14.73;;
10699;SDS011;5401;41.986;21.452;2023-03-01T07:37:10;20.00;;;13.93;;
10699;SDS011;5401;41.986;21.452;2023-03-01T07:39:37;20.20;;;15.33;;
10699;SDS011;5401;41.986;21.452;2023-03-01T07:42:05;22.77;;;15.37;;
10699;SDS011;5401;41.986;21.452;2023-03-01T07:44:33;23.00;;;15.40;;
10699;SDS011;5401;41.986;21.452;2023-03-01T07:47:01;23.40;;;15.83;;
10699;SDS011;5401;41.986;21.452;2023-03-01T07:49:31;24.57;;;15.97;;
10699;SDS011;5401;41.986;21.452;2023-03-01T07:51:58;24.70;;;16.77;;
10699;SDS011;5401;41.986;21.452;2023-03-01T07:54:26;23.63;;;16.87;;
10699;SDS011;5401;41.986;21.452;2023-03-01T07:56:53;27.53;;;17.90;;
10699;SDS011;5401;41.986;21.452;2023-03-01T07:59:23;22.43;;;16.50;;
10699;SDS011;5401;41.986;21.452;2023-03-01T08:01:54;22.47;;;16.23;;
10699;SDS011;5401;41.986;21.452;2023-03-01T08:04:22;21.73;;;16.80;;
10699;SDS011;5401;41.986;21.452;2023-03-01T08:06:52;26.13;;;16.97;;
10699;SDS011;5401;41.986;21.452;2023-03-01T08:09:20;23.70;;;17.43;;
10699;SDS011;5401;41.986;21.452;2023-03-01T08:11:48;27.57;;;17.07;;
10699;SDS011;5401;41.986;21.452;2023-03-01T08:14:16;28.20;;;18.33;;
10699;SDS011;5401;41.986;21.452;2023-03-01T08:16:43;22.33;;;16.03;;
10699;SDS011;5401;41.986;21.452;2023-03-01T08:19:11;25.07;;;17.60;;
10699;SDS011;5401;41.986;21.452;2023-03-01T08:21:39;25.97;;;17.73;;
10699;SDS011;5401;41.986;21.452;2023-03-01T08:24:09;23.63;;;16.60;;
10699;SDS011;5401;41.986;21.452;2023-03-01T08:26:37;23.27;;;17.20;;
10699;SDS011;5401;41.986;21.452;2023-03-01T08:29:04;31.17;;;19.43;;
10699;SDS011;5401;41.986;21.452;2023-03-01T08:31:33;25.10;;;16.03;;
10699;SDS011;5401;41.986;21.452;2023-03-01T08:34:03;24.13;;;16.97;;
10699;SDS011;5401;41.986;21.452;2023-03-01T08:36:33;24.47;;;16.63;;
10699;SDS011;5401;41.986;21.452;2023-03-01T08:39:09;26.83;;;18.77;;
10699;SDS011;5401;41.986;21.452;2023-03-01T08:42:13;26.00;;;17.67;;
10699;SDS011;5401;41.986;21.452;2023-03-01T08:44:46;23.73;;;16.93;;
10699;SDS011;5401;41.986;21.452;2023-03-01T08:47:43;23.40;;;17.80;;
10699;SDS011;5401;41.986;21.452;2023-03-01T08:50:29;23.57;;;16.17;;
10699;SDS011;5401;41.986;21.452;2023-03-01T08:53:10;27.20;;;18.03;;
10699;SDS011;5401;41.986;21.452;2023-03-01T08:56:10;23.37;;;17.37;;
10699;SDS011;5401;41.986;21.452;2023-03-01T08:58:46;23.90;;;18.03;;
10699;SDS011;5401;41.986;21.452;2023-03-01T09:01:30;23.60;;;16.70;;
10699;SDS011;5401;41.986;21.452;2023-03-01T09:04:19;21.63;;;16.50;;
10699;SDS011;5401;41.986;21.452;2023-03-01T09:07:01;20.43;;;14.17;;
10699;SDS011;5401;41.986;21.452;2023-03-01T09:09:28;16.83;;;13.60;;
10699;SDS011;5401;41.986;21.452;2023-03-01T09:12:07;19.90;;;15.00;;
10699;SDS011;5401;41.986;21.452;2023-03-01T09:15:00;20.13;;;13.60;;
10699;SDS011;5401;41.986;21.452;2023-03-01T09:17:31;20.43;;;15.17;;
10699;SDS011;5401;41.986;21.452;2023-03-01T09:19:59;21.47;;;15.50;;
10699;SDS011;5401;41.986;21.452;2023-03-01T09:22:27;20.77;;;15.63;;
10699;SDS011;5401;41.986;21.452;2023-03-01T09:24:55;21.80;;;15.60;;
10699;SDS011;5401;41.986;21.452;2023-03-01T09:27:32;24.03;;;16.27;;
10699;SDS011;5401;41.986;21.452;2023-03-01T09:30:04;22.27;;;15.40;;
10699;SDS011;5401;41.986;21.452;2023-03-01T09:32:39;24.53;;;15.87;;
10699;SDS011;5401;41.986;21.452;2023-03-01T09:35:22;27.03;;;17.73;;
10699;SDS011;5401;41.986;21.452;2023-03-01T09:37:50;21.87;;;16.23;;
10699;SDS011;5401;41.986;21.452;2023-03-01T09:40:19;28.63;;;18.03;;
10699;SDS011;5401;41.986;21.452;2023-03-01T09:42:52;28.73;;;19.57;;
10699;SDS011;5401;41.986;21.452;2023-03-01T09:45:25;28.87;;;19.10;;
10699;SDS011;5401;41.986;21.452;2023-03-01T09:47:57;30.67;;;18.47;;
10699;SDS011;5401;41.986;21.452;2023-03-01T09:50:27;35.30;;;21.63;;
10699;SDS011;5401;41.986;21.452;2023-03-01T09:53:00;33.87;;;19.87;;
10699;SDS011;5401;41.986;21.452;2023-03-01T09:55:31;26.10;;;17.47;;
10699;SDS011;5401;41.986;21.452;2023-03-01T09:58:06;34.27;;;18.80;;
10699;SDS011;5401;41.986;21.452;2023-03-01T10:01:02;31.23;;;20.00;;
10699;SDS011;5401;41.986;21.452;2023-03-01T10:03:44;28.30;;;18.87;;
10699;SDS011;5401;41.986;21.452;2023-03-01T10:06:26;25.53;;;16.70;;
10699;SDS011;5401;41.986;21.452;2023-03-01T10:08:54;20.57;;;15.83;;
10699;SDS011;5401;41.986;21.452;2023-03-01T10:11:25;23.07;;;16.90;;
10699;SDS011;5401;41.986;21.452;2023-03-01T10:14:01;31.63;;;20.77;;
10699;SDS011;5401;41.986;21.452;2023-03-01T10:16:35;29.63;;;18.93;;
10699;SDS011;5401;41.986;21.452;2023-03-01T10:19:11;29.67;;;19.20;;
10699;SDS011;5401;41.986;21.452;2023-03-01T10:21:44;26.97;;;18.80;;
10699;SDS011;5401;41.986;21.452;2023-03-01T10:24:13;22.87;;;17.97;;
10699;SDS011;5401;41.986;21.452;2023-03-01T10:26:48;27.20;;;17.90;;
10699;SDS011;5401;41.986;21.452;2023-03-01T10:29:25;29.30;;;20.37;;
10699;SDS011;5401;41.986;21.452;2023-03-01T10:31:57;29.43;;;18.57;;
10699;SDS011;5401;41.986;21.452;2023-03-01T10:34:27;26.70;;;17.13;;
10699;SDS011;5401;41.986;21.452;2023-03-01T10:36:59;24.07;;;17.50;;
10699;SDS011;5401;41.986;21.452;2023-03-01T10:39:35;27.53;;;17.67;;
10699;SDS011;5401;41.986;21.452;2023-03-01T10:42:05;23.97;;;16.90;;
10699;SDS011;5401;41.986;21.452;2023-03-01T10:44:47;24.83;;;17.97;;
10699;SDS011;5401;41.986;21.452;2023-03-01T10:47:18;24.67;;;17.73;;
10699;SDS011;5401;41.986;21.452;2023-03-01T10:50:00;29.77;;;16.70;;
10699;SDS011;5401;41.986;21.452;2023-03-01T10:52:31;24.77;;;18.23;;
10699;SDS011;5401;41.986;21.452;2023-03-01T10:55:03;21.93;;;16.23;;
10699;SDS011;5401;41.986;21.452;2023-03-01T10:57:50;23.03;;;15.73;;
10699;SDS011;5401;41.986;21.452;2023-03-01T11:00:36;20.67;;;13.83;;
10699;SDS011;5401;41.986;21.452;2023-03-01T11:03:16;21.80;;;15.43;;
10699;SDS011;5401;41.986;21.452;2023-03-01T11:05:56;24.87;;;16.93;;
10699;SDS011;5401;41.986;21.452;2023-03-01T11:08:29;23.63;;;16.87;;
10699;SDS011;5401;41.986;21.452;2023-03-01T11:13:57;26.70;;;17.43;;
10699;SDS011;5401;41.986;21.452;2023-03-01T11:16:32;22.67;;;17.00;;
10699;SDS011;5401;41.986;21.452;2023-03-01T11:19:18;25.83;;;16.87;;
10699;SDS011;5401;41.986;21.452;2023-03-01T11:21:53;26.83;;;16.67;;
10699;SDS011;5401;41.986;21.452;2023-03-01T11:24:27;30.37;;;16.90;;
10699;SDS011;5401;41.986;21.452;2023-03-01T11:26:59;30.63;;;18.73;;
10699;SDS011;5401;41.986;21.452;2023-03-01T11:29:32;29.37;;;16.73;;
10699;SDS011;5401;41.986;21.452;2023-03-01T11:32:09;32.03;;;19.57;;
10699;SDS011;5401;41.986;21.452;2023-03-01T11:34:42;25.13;;;17.23;;
10699;SDS011;5401;41.986;21.452;2023-03-01T11:37:16;25.30;;;17.07;;
10699;SDS011;5401;41.986;21.452;2023-03-01T11:39:53;27.43;;;17.87;;
10699;SDS011;5401;41.986;21.452;2023-03-01T11:42:29;25.83;;;17.80;;
10699;SDS011;5401;41.986;21.452;2023-03-01T11:45:08;23.70;;;19.13;;
10699;SDS011;5401;41.986;21.452;2023-03-01T11:47:44;27.13;;;19.10;;
10699;SDS011;5401;41.986;21.452;2023-03-01T11:50:26;25.47;;;18.77;;
10699;SDS011;5401;41.986;21.452;2023-03-01T11:53:00;31.07;;;18.70;;
10699;SDS011;5401;41.986;21.452;2023-03-01T11:55:46;28.17;;;19.20;;
10699;SDS011;5401;41.986;21.452;2023-03-01T11:58:36;29.40;;;18.90;;
10699;SDS011;5401;41.986;21.452;2023-03-01T12:01:16;22.77;;;17.93;;
10699;SDS011;5401;41.986;21.452;2023-03-01T12:07:11;27.20;;;21.47;;
10699;SDS011;5401;41.986;21.452;2023-03-01T12:09:56;25.90;;;19.50;;
10699;SDS011;5401;41.986;21.452;2023-03-01T12:12:42;34.37;;;21.07;;
10699;SDS011;5401;41.986;21.452;2023-03-01T12:15:23;27.37;;;21.00;;
10699;SDS011;5401;41.986;21.452;2023-03-01T12:18:10;32.13;;;21.87;;
10699;SDS011;5401;41.986;21.452;2023-03-01T12:20:47;31.50;;;19.93;;
10699;SDS011;5401;41.986;21.452;2023-03-01T12:23:45;27.33;;;19.90;;
10699;SDS011;5401;41.986;21.452;2023-03-01T12:26:36;27.93;;;18.23;;
10699;SDS011;5401;41.986;21.452;2023-03-01T12:29:24;32.63;;;19.63;;
10699;SDS011;5401;41.986;21.452;2023-03-01T12:32:00;32.43;;;20.53;;
10699;SDS011;5401;41.986;21.452;2023-03-01T12:34:48;33.20;;;20.83;;
10699;SDS011;5401;41.986;21.452;2023-03-01T12:37:29;27.87;;;20.73;;
10699;SDS011;5401;41.986;21.452;2023-03-01T12:40:13;29.93;;;20.43;;
10699;SDS011;5401;41.986;21.452;2023-03-01T12:42:55;28.90;;;21.63;;
10699;SDS011;5401;41.986;21.452;2023-03-01T12:48:32;30.37;;;20.77;;
10699;SDS011;5401;41.986;21.452;2023-03-01T12:51:08;32.57;;;21.17;;
10699;SDS011;5401;41.986;21.452;2023-03-01T12:53:42;29.20;;;21.20;;
10699;SDS011;5401;41.986;21.452;2023-03-01T12:56:16;30.63;;;20.53;;
10699;SDS011;5401;41.986;21.452;2023-03-01T12:58:50;29.53;;;21.80;;
10699;SDS011;5401;41.986;21.452;2023-03-01T13:01:31;28.20;;;21.47;;
10699;SDS011;5401;41.986;21.452;2023-03-01T13:07:11;30.07;;;21.27;;
10699;SDS011;5401;41.986;21.452;2023-03-01T13:09:53;29.33;;;20.33;;
10699;SDS011;5401;41.986;21.452;2023-03-01T13:12:45;27.33;;;21.10;;
10699;SDS011;5401;41.986;21.452;2023-03-01T13:15:33;27.53;;;21.07;;
10699;SDS011;5401;41.986;21.452;2023-03-01T13:18:03;32.93;;;22.40;;
10699;SDS011;5401;41.986;21.452;2023-03-01T13:20:52;35.70;;;22.50;;
10699;SDS011;5401;41.986;21.452;2023-03-01T13:23:27;43.03;;;24.37;;
10699;SDS011;5401;41.986;21.452;2023-03-01T13:26:04;27.63;;;21.07;;
10699;SDS011;5401;41.986;21.452;2023-03-01T13:28:51;27.87;;;20.77;;
10699;SDS011;5401;41.986;21.452;2023-03-01T13:37:26;34.57;;;21.30;;
10699;SDS011;5401;41.986;21.452;2023-03-01T13:39:57;31.43;;;22.27;;
10699;SDS011;5401;41.986;21.452;2023-03-01T13:42:35;28.90;;;20.97;;
10699;SDS011;5401;41.986;21.452;2023-03-01T13:45:15;45.20;;;25.97;;
10699;SDS011;5401;41.986;21.452;2023-03-01T13:47:49;35.37;;;20.97;;
10699;SDS011;5401;41.986;21.452;2023-03-01T13:50:20;36.37;;;23.43;;
10699;SDS011;5401;41.986;21.452;2023-03-01T13:52:52;72.57;;;25.30;;
10699;SDS011;5401;41.986;21.452;2023-03-01T13:55:26;54.63;;;25.83;;
10699;SDS011;5401;41.986;21.452;2023-03-01T13:58:04;38.27;;;25.27;;
10699;SDS011;5401;41.986;21.452;2023-03-01T14:00:44;177.10;;;37.53;;
10699;SDS011;5401;41.986;21.452;2023-03-01T14:03:17;56.33;;;31.90;;
10699;SDS011;5401;41.986;21.452;2023-03-01T14:05:57;32.30;;;22.30;;
10699;SDS011;5401;41.986;21.452;2023-03-01T14:08:27;32.63;;;21.30;;
10699;SDS011;5401;41.986;21.452;2023-03-01T14:14:22;32.60;;;21.90;;
10699;SDS011;5401;41.986;21.452;2023-03-01T14:17:18;31.73;;;20.37;;
10699;SDS011;5401;41.986;21.452;2023-03-01T14:20:00;29.80;;;21.07;;
10699;SDS011;5401;41.986;21.452;2023-03-01T14:22:35;30.07;;;20.77;;
10699;SDS011;5401;41.986;21.452;2023-03-01T14:25:05;33.17;;;20.63;;
10699;SDS011;5401;41.986;21.452;2023-03-01T14:27:43;31.73;;;20.33;;
10699;SDS011;5401;41.986;21.452;2023-03-01T14:30:13;41.30;;;22.80;;
10699;SDS011;5401;41.986;21.452;2023-03-01T14:32:53;34.83;;;21.30;;
10699;SDS011;5401;41.986;21.452;2023-03-01T14:35:23;34.33;;;20.23;;
10699;SDS011;5401;41.986;21.452;2023-03-01T14:37:52;31.90;;;19.90;;
10699;SDS011;5401;41.986;21.452;2023-03-01T14:40:21;37.93;;;21.17;;
10699;SDS011;5401;41.986;21.452;2023-03-01T14:42:53;39.07;;;20.27;;
10699;SDS011;5401;41.986;21.452;2023-03-01T14:45:25;37.87;;;24.97;;
10699;SDS011;5401;41.986;21.452;2023-03-01T14:48:00;30.10;;;20.50;;
10699;SDS011;5401;41.986;21.452;2023-03-01T14:50:30;35.87;;;21.30;;
10699;SDS011;5401;41.986;21.452;2023-03-01T14:53:00;33.20;;;23.03;;
10699;SDS011;5401;41.986;21.452;2023-03-01T14:55:31;33.00;;;20.93;;
10699;SDS011;5401;41.986;21.452;2023-03-01T14:58:03;35.47;;;21.17;;
10699;SDS011;5401;41.986;21.452;2023-03-01T15:00:33;34.30;;;20.93;;
10699;SDS011;5401;41.986;21.452;2023-03-01T15:03:07;33.60;;;20.83;;
10699;SDS011;5401;41.986;21.452;2023-03-01T15:05:40;38.27;;;21.23;;
10699;SDS011;5401;41.986;21.452;2023-03-01T15:08:14;41.97;;;21.77;;
10699;SDS011;5401;41.986;21.452;2023-03-01T15:10:55;31.80;;;20.77;;
10699;SDS011;5401;41.986;21.452;2023-03-01T15:13:25;31.64;;;19.00;;
10699;SDS011;5401;41.986;21.452;2023-03-01T15:16:00;28.17;;;20.43;;